createdAt,value
2023-02-18T00:01:37.947Z,61.60
2023-02-18T00:04:05.426Z,61.21
2023-02-18T00:06:35.558Z,61.77
2023-02-18T00:09:05.063Z,61.47
2023-02-18T00:11:35.275Z,61.03
2023-02-18T00:14:04.650Z,61.28
2023-02-18T00:16:32.540Z,60.68
2023-02-18T00:19:05.395Z,61.24
2023-02-18T00:21:34.578Z,60.74
2023-02-18T00:24:02.744Z,61.23
2023-02-18T00:26:30.316Z,60.84
2023-02-18T00:28:57.821Z,61.12
2023-02-18T00:31:31.235Z,60.40
2023-02-18T00:34:01.168Z,60.87
2023-02-18T00:36:29.246Z,60.43
2023-02-18T00:38:59.467Z,60.69
2023-02-18T00:41:29.221Z,60.39
2023-02-18T00:43:57.623Z,60.36
2023-02-18T00:46:25.896Z,60.47
2023-02-18T00:48:54.877Z,60.46
2023-02-18T00:51:23.081Z,60.86
2023-02-18T00:53:50.567Z,60.60
2023-02-18T00:56:18.345Z,61.11
2023-02-18T00:58:45.957Z,60.90
2023-02-18T01:01:13.845Z,60.84
2023-02-18T01:03:42.898Z,60.22
2023-02-18T01:06:12.134Z,60.60
2023-02-18T01:08:40.840Z,60.32
2023-02-18T01:11:10.602Z,60.81
2023-02-18T01:13:38.556Z,60.28
2023-02-18T01:16:08.593Z,60.50
2023-02-18T01:18:37.070Z,61.16
2023-02-18T01:21:08.661Z,60.63
2023-02-18T01:23:38.497Z,61.50
2023-02-18T01:26:06.331Z,60.90
2023-02-18T01:28:34.037Z,61.08
2023-02-18T01:31:09.399Z,61.86
2023-02-18T01:33:37.183Z,61.25
2023-02-18T01:36:05.563Z,61.09
2023-02-18T01:38:33.168Z,60.55
2023-02-18T01:41:01.821Z,61.09
2023-02-18T01:43:29.640Z,61.38
2023-02-18T01:46:08.977Z,61.47
2023-02-18T01:48:46.211Z,61.85
2023-02-18T01:51:17.753Z,61.84
2023-02-18T01:53:56.868Z,61.94
2023-02-18T01:56:28.904Z,61.79
2023-02-18T01:59:00.368Z,62.78
2023-02-18T02:01:28.863Z,62.18
2023-02-18T02:03:56.296Z,62.87
2023-02-18T02:06:26.218Z,63.10
2023-02-18T02:08:59.701Z,62.70
2023-02-18T02:11:30.047Z,63.46
2023-02-18T02:14:00.510Z,62.45
2023-02-18T02:16:49.176Z,62.68
2023-02-18T02:19:42.704Z,63.29
2023-02-18T02:22:28.451Z,61.97
2023-02-18T02:25:08.073Z,62.85
2023-02-18T02:27:44.250Z,62.56
2023-02-18T02:30:30.150Z,62.70
2023-02-18T02:33:28.893Z,63.15
2023-02-18T02:35:59.439Z,61.82
2023-02-18T02:38:34.086Z,62.98
2023-02-18T02:41:18.470Z,63.36
2023-02-18T02:44:07.032Z,62.40
2023-02-18T02:46:51.343Z,61.96
2023-02-18T02:49:38.023Z,62.35
2023-02-18T02:52:12.156Z,62.41
2023-02-18T02:54:40.213Z,62.21
2023-02-18T02:57:13.882Z,62.68
2023-02-18T02:59:59.467Z,62.89
2023-02-18T03:02:46.557Z,63.42
2023-02-18T03:06:07.790Z,63.35
2023-02-18T03:08:52.659Z,63.14
2023-02-18T03:11:20.275Z,63.33
2023-02-18T03:13:53.663Z,63.22
2023-02-18T03:16:36.673Z,63.94
2023-02-18T03:19:16.743Z,64.69
2023-02-18T03:21:59.030Z,65.08
2023-02-18T03:24:34.845Z,64.45
2023-02-18T03:27:15.453Z,65.76
2023-02-18T03:29:46.451Z,66.35
2023-02-18T03:32:18.478Z,65.97
2023-02-18T03:34:50.993Z,66.37
2023-02-18T03:37:19.945Z,66.33
2023-02-18T03:39:56.151Z,66.65
2023-02-18T03:42:28.740Z,66.64
2023-02-18T03:44:56.583Z,66.74
2023-02-18T03:47:25.260Z,66.56
2023-02-18T03:49:52.743Z,66.43
2023-02-18T03:52:20.240Z,66.95
2023-02-18T03:54:47.907Z,66.82
2023-02-18T03:57:15.369Z,66.48
2023-02-18T03:59:42.860Z,66.42
2023-02-18T04:02:10.320Z,66.22
2023-02-18T04:04:37.866Z,66.47
2023-02-18T04:07:05.850Z,65.58
2023-02-18T04:09:33.377Z,66.64
2023-02-18T04:12:00.843Z,67.19
2023-02-18T04:14:28.493Z,66.67
2023-02-18T04:16:55.982Z,66.68
2023-02-18T04:19:23.468Z,67.59
2023-02-18T04:21:51.206Z,67.83
2023-02-18T04:24:18.612Z,67.87
2023-02-18T04:26:46.265Z,68.55
2023-02-18T04:29:13.721Z,68.90
2023-02-18T04:31:41.366Z,69.26
2023-02-18T04:34:08.974Z,68.88
2023-02-18T04:36:36.513Z,68.17
2023-02-18T04:39:04.738Z,68.80
2023-02-18T04:41:32.224Z,68.10
2023-02-18T04:44:00.729Z,68.78
2023-02-18T04:46:28.689Z,68.33
2023-02-18T04:48:56.106Z,68.84
2023-02-18T04:51:24.171Z,68.02
2023-02-18T04:53:51.620Z,67.14
2023-02-18T04:56:19.094Z,67.20
2023-02-18T04:58:46.994Z,67.62
2023-02-18T05:01:14.562Z,67.45
2023-02-18T05:03:42.207Z,66.85
2023-02-18T05:06:10.031Z,66.11
2023-02-18T05:08:37.870Z,66.15
2023-02-18T05:11:07.329Z,66.23
2023-02-18T05:13:34.977Z,65.89
2023-02-18T05:16:02.740Z,65.13
2023-02-18T05:18:30.238Z,65.09
2023-02-18T05:20:57.710Z,65.37
2023-02-18T05:23:26.074Z,66.15
2023-02-18T05:25:55.001Z,65.69
2023-02-18T05:28:22.839Z,65.05
2023-02-18T05:30:50.396Z,65.04
2023-02-18T05:33:17.917Z,65.63
2023-02-18T05:35:45.442Z,65.16
2023-02-18T05:38:12.882Z,65.37
2023-02-18T05:40:40.810Z,65.41
2023-02-18T05:43:08.213Z,65.32
2023-02-18T05:45:36.260Z,64.74
2023-02-18T05:48:03.873Z,65.35
2023-02-18T05:50:31.755Z,64.68
2023-02-18T05:52:59.389Z,65.35
2023-02-18T05:55:27.051Z,65.80
2023-02-18T05:57:54.605Z,65.03
2023-02-18T06:00:22.191Z,65.32
2023-02-18T06:02:51.167Z,64.82
2023-02-18T06:05:18.794Z,64.54
2023-02-18T06:07:46.213Z,64.08
2023-02-18T06:10:13.819Z,64.59
2023-02-18T06:12:41.394Z,64.10
2023-02-18T06:15:09.095Z,63.61
2023-02-18T06:17:36.695Z,63.06
2023-02-18T06:20:04.518Z,62.63
2023-02-18T06:22:32.103Z,62.95
2023-02-18T06:24:59.541Z,63.51
2023-02-18T06:27:27.179Z,63.00
2023-02-18T06:29:54.622Z,61.83
2023-02-18T06:32:22.361Z,62.41
2023-02-18T06:34:49.873Z,62.94
2023-02-18T06:37:17.324Z,62.79
2023-02-18T06:39:44.846Z,62.88
2023-02-18T06:42:13.391Z,62.01
2023-02-18T06:44:42.012Z,62.20
2023-02-18T06:47:09.464Z,61.93
2023-02-18T06:49:37.284Z,61.29
2023-02-18T06:52:05.814Z,61.71
2023-02-18T06:54:34.510Z,59.76
2023-02-18T06:57:02.049Z,59.99
2023-02-18T06:59:29.501Z,60.44
2023-02-18T07:01:56.941Z,59.97
2023-02-18T07:04:24.471Z,59.65
2023-02-18T07:06:51.964Z,59.93
2023-02-18T07:09:19.529Z,60.03
2023-02-18T07:11:46.994Z,60.14
2023-02-18T07:14:14.430Z,59.99
2023-02-18T07:16:42.140Z,59.78
2023-02-18T07:19:09.843Z,59.07
2023-02-18T07:21:37.432Z,59.00
2023-02-18T07:24:05.296Z,59.34
2023-02-18T07:26:32.805Z,59.29
2023-02-18T07:29:00.392Z,58.67
2023-02-18T07:31:28.160Z,58.97
2023-02-18T07:33:57.293Z,59.05
2023-02-18T07:36:24.927Z,58.41
2023-02-18T07:38:52.392Z,58.16
2023-02-18T07:41:22.539Z,58.66
2023-02-18T07:43:50.499Z,58.81
2023-02-18T07:46:19.433Z,57.89
2023-02-18T07:48:47.143Z,57.13
2023-02-18T07:51:14.630Z,57.61
2023-02-18T07:53:42.231Z,57.22
2023-02-18T07:56:10.061Z,57.01
2023-02-18T07:58:39.076Z,57.11
2023-02-18T08:01:08.879Z,57.34
2023-02-18T08:03:36.548Z,58.05
2023-02-18T08:06:05.966Z,58.10
2023-02-18T08:08:36.723Z,58.17
2023-02-18T08:11:18.506Z,57.78
2023-02-18T08:13:47.527Z,58.13
2023-02-18T08:16:16.787Z,58.98
2023-02-18T08:18:44.938Z,58.68
2023-02-18T08:21:12.404Z,59.31
2023-02-18T08:23:40.318Z,59.66
2023-02-18T08:26:08.173Z,58.96
2023-02-18T08:28:43.549Z,59.95
2023-02-18T08:31:20.670Z,60.26
2023-02-18T08:33:48.719Z,59.72
2023-02-18T08:36:16.186Z,59.89
2023-02-18T08:38:43.784Z,60.12
2023-02-18T08:41:11.672Z,59.89
2023-02-18T08:43:39.213Z,59.84
2023-02-18T08:46:06.786Z,59.90
2023-02-18T08:48:34.423Z,59.39
2023-02-18T08:51:15.777Z,58.91
2023-02-18T08:53:43.643Z,59.46
2023-02-18T08:56:11.378Z,59.40
2023-02-18T08:58:39.134Z,59.60
2023-02-18T09:01:09.764Z,59.85
2023-02-18T09:03:37.753Z,60.13
2023-02-18T09:06:05.888Z,60.26
2023-02-18T09:08:33.459Z,60.12
2023-02-18T09:11:04.564Z,60.08
2023-02-18T09:13:33.624Z,60.39
2023-02-18T09:16:04.431Z,59.89
2023-02-18T09:18:33.387Z,60.18
2023-02-18T09:21:01.172Z,59.81
2023-02-18T09:23:30.809Z,59.62
2023-02-18T09:25:59.065Z,59.77
2023-02-18T09:28:27.428Z,60.04
2023-02-18T09:30:55.151Z,59.88
2023-02-18T09:33:22.923Z,59.96
2023-02-18T09:35:50.422Z,59.69
2023-02-18T09:38:18.565Z,57.98
2023-02-18T09:40:52.237Z,58.33
2023-02-18T09:43:35.054Z,56.91
2023-02-18T09:46:04.947Z,57.49
2023-02-18T09:48:36.244Z,56.34
2023-02-18T09:51:04.057Z,56.36
2023-02-18T09:53:31.489Z,56.51
2023-02-18T09:56:00.627Z,55.90
2023-02-18T09:58:31.803Z,55.73
2023-02-18T10:01:11.373Z,54.84
2023-02-18T10:03:40.713Z,53.57
2023-02-18T10:06:16.349Z,52.08
2023-02-18T10:08:47.514Z,51.92
2023-02-18T10:11:28.801Z,52.23
2023-02-18T10:13:58.678Z,52.90
2023-02-18T10:16:26.260Z,53.18
2023-02-18T10:18:59.992Z,53.15
2023-02-18T10:21:31.466Z,53.30
2023-02-18T10:24:16.698Z,53.27
2023-02-18T10:26:44.255Z,53.75
2023-02-18T10:29:20.922Z,53.30
2023-02-18T10:32:19.658Z,53.63
2023-02-18T10:35:24.578Z,53.64
2023-02-18T10:38:16.177Z,52.53
2023-02-18T10:41:09.756Z,52.29
2023-02-18T10:43:53.274Z,52.86
2023-02-18T10:46:58.797Z,52.82
2023-02-18T10:49:54.203Z,53.71
2023-02-18T10:52:22.110Z,51.74
2023-02-18T10:54:58.061Z,50.97
2023-02-18T10:57:26.454Z,51.54
2023-02-18T11:00:19.117Z,50.71
2023-02-18T11:02:48.274Z,50.94
2023-02-18T11:05:24.821Z,51.32
2023-02-18T11:07:54.794Z,51.82
2023-02-18T11:10:27.426Z,51.73
2023-02-18T11:13:02.116Z,51.93
2023-02-18T11:15:30.627Z,52.13
2023-02-18T11:18:26.863Z,51.79
2023-02-18T11:21:00.391Z,52.01
2023-02-18T11:23:28.140Z,52.22
2023-02-18T11:26:03.280Z,52.24
2023-02-18T11:28:45.554Z,52.19
2023-02-18T11:31:25.625Z,52.16
2023-02-18T11:33:57.651Z,52.12
2023-02-18T11:36:43.711Z,52.32
2023-02-18T11:39:27.339Z,52.53
2023-02-18T11:41:58.348Z,52.22
2023-02-18T11:44:34.797Z,51.66
2023-02-18T11:47:20.254Z,51.12
2023-02-18T11:50:01.830Z,49.17
2023-02-18T11:52:39.589Z,46.80
2023-02-18T11:55:15.566Z,46.37
2023-02-18T11:57:52.445Z,45.59
2023-02-18T12:00:22.641Z,44.56
2023-02-18T12:02:53.125Z,43.95
2023-02-18T12:05:27.088Z,42.07
2023-02-18T12:08:24.326Z,40.88
2023-02-18T12:11:01.449Z,40.59
2023-02-18T12:13:34.711Z,41.88
2023-02-18T12:16:30.887Z,42.76
2023-02-18T12:19:42.532Z,42.94
2023-02-18T12:22:50.873Z,43.77
2023-02-18T12:25:40.131Z,43.51
2023-02-18T12:28:25.821Z,43.94
2023-02-18T12:31:15.126Z,45.75
2023-02-18T12:33:48.437Z,46.98
2023-02-18T12:36:40.312Z,47.81
2023-02-18T12:39:31.162Z,49.38
2023-02-18T12:42:07.736Z,49.99
2023-02-18T12:44:45.673Z,49.59
2023-02-18T12:47:37.664Z,50.59
2023-02-18T12:50:42.876Z,51.35
2023-02-18T12:53:16.222Z,52.34
2023-02-18T12:55:51.913Z,52.21
2023-02-18T12:58:30.518Z,52.90
2023-02-18T13:01:23.155Z,53.86
2023-02-18T13:04:18.512Z,53.97
2023-02-18T13:07:01.702Z,53.98
2023-02-18T13:09:50.420Z,53.94
2023-02-18T13:12:29.785Z,53.84
2023-02-18T13:15:02.203Z,54.36
2023-02-18T13:17:36.148Z,54.79
2023-02-18T13:20:14.896Z,55.52
2023-02-18T13:22:43.734Z,55.18
2023-02-18T13:25:15.382Z,56.08
2023-02-18T13:27:48.809Z,55.66
2023-02-18T13:30:45.437Z,56.11
2023-02-18T13:33:38.053Z,56.49
2023-02-18T13:36:23.642Z,56.75
2023-02-18T13:39:01.472Z,56.62
2023-02-18T13:41:28.983Z,56.14
2023-02-18T13:43:56.452Z,56.02
2023-02-18T13:46:25.384Z,56.15
2023-02-18T13:49:00.909Z,56.69
2023-02-18T13:51:41.435Z,57.25
2023-02-18T13:54:26.043Z,57.65
2023-02-18T13:57:05.301Z,56.90
2023-02-18T13:59:44.398Z,57.32
2023-02-18T14:02:21.360Z,57.78
2023-02-18T14:05:09.398Z,58.50
2023-02-18T14:07:44.382Z,58.18
2023-02-18T14:10:18.653Z,58.38
2023-02-18T14:12:58.378Z,58.99
2023-02-18T14:15:25.872Z,58.16
2023-02-18T14:18:12.010Z,58.16
2023-02-18T14:20:39.444Z,58.54
2023-02-18T14:23:19.122Z,57.72
2023-02-18T14:25:57.713Z,58.81
2023-02-18T14:28:33.961Z,59.01
2023-02-18T14:31:13.998Z,59.59
2023-02-18T14:34:04.657Z,59.45
2023-02-18T14:37:09.049Z,59.50
2023-02-18T14:39:48.494Z,59.46
2023-02-18T14:42:56.526Z,59.99
2023-02-18T14:45:31.392Z,59.45
2023-02-18T14:48:17.403Z,60.39
2023-02-18T14:50:50.074Z,60.09
2023-02-18T14:53:21.932Z,59.68
2023-02-18T14:55:56.522Z,59.91
2023-02-18T14:58:32.798Z,59.52
2023-02-18T15:01:30.830Z,59.58
2023-02-18T15:03:58.610Z,59.15
2023-02-18T15:06:33.963Z,59.64
2023-02-18T15:09:13.155Z,59.36
2023-02-18T15:11:51.566Z,59.84
2023-02-18T15:14:24.669Z,59.69
2023-02-18T15:16:53.477Z,59.89
2023-02-18T15:19:24.373Z,59.49
2023-02-18T15:21:55.340Z,60.18
2023-02-18T15:24:32.786Z,60.84
2023-02-18T15:27:04.280Z,60.63
2023-02-18T15:29:36.681Z,60.95
2023-02-18T15:32:16.914Z,61.49
2023-02-18T15:34:45.550Z,61.31
2023-02-18T15:37:15.157Z,61.26
2023-02-18T15:39:43.891Z,60.27
2023-02-18T15:42:20.316Z,61.06
2023-02-18T15:44:51.142Z,60.91
2023-02-18T15:47:20.194Z,61.40
2023-02-18T15:49:54.126Z,61.79
2023-02-18T15:52:32.002Z,61.78
2023-02-18T15:55:15.865Z,62.76
2023-02-18T15:57:43.732Z,62.04
2023-02-18T16:00:20.238Z,62.09
2023-02-18T16:03:05.014Z,62.40
2023-02-18T16:05:38.317Z,61.97
2023-02-18T16:08:14.057Z,61.92
2023-02-18T16:10:51.285Z,62.01
2023-02-18T16:13:19.685Z,62.35
2023-02-18T16:15:50.572Z,61.67
2023-02-18T16:18:42.623Z,62.03
2023-02-18T16:21:19.205Z,61.91
2023-02-18T16:23:56.548Z,61.94
2023-02-18T16:26:43.653Z,61.72
2023-02-18T16:29:16.002Z,62.28
2023-02-18T16:31:43.920Z,61.97
2023-02-18T16:34:11.431Z,62.44
2023-02-18T16:36:59.035Z,61.99
2023-02-18T16:39:29.253Z,62.03
2023-02-18T16:41:59.263Z,62.31
2023-02-18T16:44:26.790Z,62.36
2023-02-18T16:46:54.247Z,62.89
2023-02-18T16:49:21.848Z,62.65
2023-02-18T16:51:49.365Z,62.84
2023-02-18T16:54:16.850Z,62.97
2023-02-18T16:56:44.510Z,62.77
2023-02-18T16:59:12.096Z,62.52
2023-02-18T17:01:44.981Z,62.50
2023-02-18T17:04:18.268Z,62.42
2023-02-18T17:06:46.481Z,62.54
2023-02-18T17:09:17.100Z,62.23
2023-02-18T17:11:47.506Z,62.08
2023-02-18T17:14:19.937Z,61.59
2023-02-18T17:16:49.136Z,62.32
2023-02-18T17:19:17.203Z,61.58
2023-02-18T17:21:46.476Z,62.54
2023-02-18T17:24:18.372Z,62.38
2023-02-18T17:26:45.825Z,62.36
2023-02-18T17:29:13.971Z,61.83
2023-02-18T17:31:45.147Z,62.11
2023-02-18T17:34:19.528Z,62.18
2023-02-18T17:36:47.283Z,62.15
2023-02-18T17:39:17.463Z,62.43
2023-02-18T17:41:45.177Z,62.05
2023-02-18T17:44:16.760Z,62.16
2023-02-18T17:46:44.695Z,62.08
2023-02-18T17:49:15.137Z,62.26
2023-02-18T17:51:43.344Z,62.21
2023-02-18T17:54:16.517Z,62.62
2023-02-18T17:56:44.188Z,62.46
2023-02-18T17:59:12.059Z,61.53
2023-02-18T18:01:40.073Z,62.00
2023-02-18T18:04:19.147Z,62.07
2023-02-18T18:06:47.675Z,61.95
2023-02-18T18:09:15.232Z,62.26
2023-02-18T18:11:42.899Z,62.02
2023-02-18T18:14:16.081Z,62.66
2023-02-18T18:16:43.695Z,62.39
2023-02-18T18:19:11.198Z,62.20
2023-02-18T18:21:38.900Z,61.73
2023-02-18T18:24:06.756Z,61.86
2023-02-18T18:26:34.178Z,61.88
2023-02-18T18:29:01.987Z,61.42
2023-02-18T18:31:32.717Z,61.65
2023-02-18T18:34:01.440Z,62.04
2023-02-18T18:36:29.005Z,61.35
2023-02-18T18:38:56.606Z,61.33
2023-02-18T18:41:24.205Z,61.50
2023-02-18T18:43:51.870Z,61.56
2023-02-18T18:46:19.459Z,61.65
2023-02-18T18:48:47.084Z,61.82
2023-02-18T18:51:22.012Z,61.71
2023-02-18T18:53:49.549Z,62.04
2023-02-18T18:56:17.092Z,61.82
2023-02-18T18:58:44.635Z,62.31
2023-02-18T19:01:22.770Z,61.62
2023-02-18T19:03:50.422Z,62.02
2023-02-18T19:06:18.071Z,61.67
2023-02-18T19:08:47.994Z,61.88
2023-02-18T19:11:16.974Z,61.86
2023-02-18T19:13:45.827Z,61.66
2023-02-18T19:16:22.379Z,61.67
2023-02-18T19:18:50.439Z,61.25
2023-02-18T19:21:18.061Z,61.17
2023-02-18T19:23:45.815Z,61.75
2023-02-18T19:26:16.207Z,61.26
2023-02-18T19:28:45.089Z,61.20
2023-02-18T19:31:13.141Z,60.51
2023-02-18T19:33:41.476Z,61.18
2023-02-18T19:36:11.178Z,60.79
2023-02-18T19:38:39.443Z,60.92
2023-02-18T19:41:12.770Z,60.75
2023-02-18T19:43:42.894Z,60.40
2023-02-18T19:46:17.042Z,60.96
2023-02-18T19:48:49.604Z,61.31
2023-02-18T19:51:17.387Z,61.25
2023-02-18T19:53:46.133Z,60.86
2023-02-18T19:56:13.745Z,61.20
2023-02-18T19:58:41.763Z,61.63
2023-02-18T20:01:13.855Z,61.46
2023-02-18T20:03:41.785Z,61.10
2023-02-18T20:06:17.502Z,61.24
2023-02-18T20:08:46.139Z,60.83
2023-02-18T20:11:13.884Z,61.88
2023-02-18T20:13:42.198Z,61.06
2023-02-18T20:16:11.718Z,61.64
2023-02-18T20:18:39.356Z,61.21
2023-02-18T20:21:09.765Z,61.81
2023-02-18T20:23:37.569Z,61.92
2023-02-18T20:26:12.989Z,62.17
2023-02-18T20:28:41.019Z,62.08
2023-02-18T20:31:12.373Z,61.96
2023-02-18T20:33:42.306Z,62.42
2023-02-18T20:36:12.296Z,62.11
2023-02-18T20:38:39.929Z,61.79
2023-02-18T20:41:14.484Z,62.22
2023-02-18T20:43:42.097Z,62.83
2023-02-18T20:46:13.290Z,62.71
2023-02-18T20:48:40.916Z,62.18
2023-02-18T20:51:13.956Z,62.19
2023-02-18T20:53:42.656Z,63.08
2023-02-18T20:56:10.677Z,62.21
2023-02-18T20:58:38.941Z,62.48
2023-02-18T21:01:12.629Z,62.60
2023-02-18T21:03:41.273Z,62.85
2023-02-18T21:06:15.576Z,62.87
2023-02-18T21:08:45.393Z,62.24
2023-02-18T21:11:22.447Z,61.65
2023-02-18T21:13:51.779Z,62.06
2023-02-18T21:16:21.370Z,62.47
2023-02-18T21:18:49.861Z,62.69
2023-02-18T21:21:19.920Z,62.59
2023-02-18T21:23:47.723Z,62.63
2023-02-18T21:26:19.122Z,62.27
2023-02-18T21:28:48.785Z,62.35
2023-02-18T21:31:21.011Z,62.32
2023-02-18T21:33:51.050Z,62.44
2023-02-18T21:36:19.594Z,62.50
2023-02-18T21:38:56.096Z,62.65
2023-02-18T21:41:24.534Z,62.50
2023-02-18T21:43:52.300Z,62.92
2023-02-18T21:46:24.006Z,62.52
2023-02-18T21:49:06.236Z,62.69
2023-02-18T21:51:57.795Z,62.31
2023-02-18T21:54:27.255Z,62.54
2023-02-18T21:56:56.408Z,62.35
2023-02-18T21:59:29.223Z,62.20
2023-02-18T22:02:00.409Z,62.30
2023-02-18T22:04:33.290Z,62.43
2023-02-18T22:07:01.540Z,62.19
2023-02-18T22:09:29.738Z,61.82
2023-02-18T22:11:57.740Z,61.96
2023-02-18T22:14:25.648Z,61.83
2023-02-18T22:16:53.281Z,62.03
2023-02-18T22:19:20.897Z,61.89
2023-02-18T22:21:49.010Z,61.86
2023-02-18T22:24:18.112Z,61.41
2023-02-18T22:26:46.852Z,62.37
2023-02-18T22:29:15.413Z,62.51
2023-02-18T22:31:43.508Z,62.16
2023-02-18T22:34:11.407Z,62.08
2023-02-18T22:36:39.211Z,61.99
2023-02-18T22:39:07.713Z,61.70
2023-02-18T22:41:35.651Z,61.73
2023-02-18T22:44:07.692Z,62.11
2023-02-18T22:46:36.794Z,61.86
2023-02-18T22:49:06.616Z,62.01
2023-02-18T22:51:40.546Z,62.05
2023-02-18T22:54:15.732Z,62.31
2023-02-18T22:56:44.802Z,61.74
2023-02-18T22:59:14.334Z,61.67
2023-02-18T23:01:44.947Z,61.82
2023-02-18T23:04:15.265Z,61.85
2023-02-18T23:06:45.160Z,62.52
2023-02-18T23:09:24.144Z,62.20
2023-02-18T23:11:58.165Z,62.14
2023-02-18T23:14:28.343Z,62.28
2023-02-18T23:17:12.999Z,62.66
2023-02-18T23:19:48.826Z,62.99
2023-02-18T23:22:28.376Z,62.30
2023-02-18T23:25:00.363Z,62.69
2023-02-18T23:27:28.549Z,62.82
2023-02-18T23:29:56.643Z,62.35
2023-02-18T23:32:24.629Z,63.06
2023-02-18T23:34:52.063Z,62.94
2023-02-18T23:37:40.635Z,62.99
2023-02-18T23:40:09.649Z,63.00
2023-02-18T23:42:37.118Z,62.75
2023-02-18T23:45:04.912Z,63.01
2023-02-18T23:47:32.494Z,63.19
2023-02-18T23:50:00.001Z,63.09
2023-02-18T23:52:27.484Z,63.41
2023-02-18T23:54:54.932Z,63.44
2023-02-18T23:57:22.401Z,63.47
2023-02-18T23:59:49.915Z,63.95
